sensor_id;sensor_type;location;lat;lon;timestamp;pressure;altitude;pressure_sealevel;temperature;humidity
69574;BME280;62840;52.366;5.980;2024-03-08T00:01:12;101933.16;;;3.32;69.96
69574;BME280;62840;52.366;5.980;2024-03-08T00:03:38;101926.19;;;3.30;69.94
69574;BME280;62840;52.366;5.980;2024-03-08T00:06:04;101927.25;;;3.26;69.98
69574;BME280;62840;52.366;5.980;2024-03-08T00:08:30;101927.34;;;3.23;69.95
69574;BME280;62840;52.366;5.980;2024-03-08T00:10:56;101923.88;;;3.21;69.91
69574;BME280;62840;52.366;5.980;2024-03-08T00:13:22;101918.72;;;3.17;69.79
69574;BME280;62840;52.366;5.980;2024-03-08T00:15:51;101922.25;;;3.16;69.83
69574;BME280;62840;52.366;5.980;2024-03-08T00:18:16;101921.41;;;3.16;69.96
69574;BME280;62840;52.366;5.980;2024-03-08T00:20:42;101926.75;;;3.14;69.92
69574;BME280;62840;52.366;5.980;2024-03-08T00:23:08;101916.25;;;3.13;69.95
69574;BME280;62840;52.366;5.980;2024-03-08T00:25:34;101917.22;;;3.10;69.94
69574;BME280;62840;52.366;5.980;2024-03-08T00:28:00;101911.13;;;3.08;70.07
69574;BME280;62840;52.366;5.980;2024-03-08T00:30:26;101913.78;;;3.08;69.94
69574;BME280;62840;52.366;5.980;2024-03-08T00:32:54;101905.00;;;3.08;70.04
69574;BME280;62840;52.366;5.980;2024-03-08T00:35:20;101910.31;;;3.06;69.81
69574;BME280;62840;52.366;5.980;2024-03-08T00:37:46;101910.31;;;3.06;69.99
69574;BME280;62840;52.366;5.980;2024-03-08T00:40:12;101910.31;;;3.06;69.93
69574;BME280;62840;52.366;5.980;2024-03-08T00:42:38;101917.41;;;3.04;69.64
69574;BME280;62840;52.366;5.980;2024-03-08T00:45:05;101905.25;;;3.00;69.92
69574;BME280;62840;52.366;5.980;2024-03-08T00:47:31;101907.06;;;2.98;69.96
69574;BME280;62840;52.366;5.980;2024-03-08T00:50:00;101893.97;;;2.96;69.75
69574;BME280;62840;52.366;5.980;2024-03-08T00:52:25;101892.28;;;2.94;69.77
69574;BME280;62840;52.366;5.980;2024-03-08T00:54:51;101895.03;;;2.91;69.82
69574;BME280;62840;52.366;5.980;2024-03-08T00:57:17;101890.72;;;2.88;70.07
69574;BME280;62840;52.366;5.980;2024-03-08T00:59:43;101880.31;;;2.85;69.86
69574;BME280;62840;52.366;5.980;2024-03-08T01:02:10;101883.84;;;2.84;69.94
69574;BME280;62840;52.366;5.980;2024-03-08T01:04:35;101882.16;;;2.82;69.92
69574;BME280;62840;52.366;5.980;2024-03-08T01:07:04;101879.53;;;2.82;69.90
69574;BME280;62840;52.366;5.980;2024-03-08T01:09:30;101876.09;;;2.80;70.21
69574;BME280;62840;52.366;5.980;2024-03-08T01:11:56;101866.47;;;2.79;69.93
69574;BME280;62840;52.366;5.980;2024-03-08T01:14:22;101870.09;;;2.76;70.08
69574;BME280;62840;52.366;5.980;2024-03-08T01:16:49;101859.59;;;2.74;70.23
69574;BME280;62840;52.366;5.980;2024-03-08T01:19:15;101860.41;;;2.77;70.13
69574;BME280;62840;52.366;5.980;2024-03-08T01:21:41;101851.69;;;2.74;70.00
69574;BME280;62840;52.366;5.980;2024-03-08T01:24:10;101846.41;;;2.74;69.97
69574;BME280;62840;52.366;5.980;2024-03-08T01:26:36;101843.88;;;2.71;69.91
69574;BME280;62840;52.366;5.980;2024-03-08T01:29:02;101833.41;;;2.70;70.12
69574;BME280;62840;52.366;5.980;2024-03-08T01:31:28;101829.09;;;2.67;70.08
69574;BME280;62840;52.366;5.980;2024-03-08T01:33:54;101834.47;;;2.64;70.04
69574;BME280;62840;52.366;5.980;2024-03-08T01:36:20;101822.22;;;2.63;69.94
69574;BME280;62840;52.366;5.980;2024-03-08T01:38:45;101825.75;;;2.62;70.00
69574;BME280;62840;52.366;5.980;2024-03-08T01:41:14;101822.22;;;2.63;70.15
69574;BME280;62840;52.366;5.980;2024-03-08T01:43:40;101817.03;;;2.60;70.09
69574;BME280;62840;52.366;5.980;2024-03-08T01:46:07;101821.44;;;2.60;70.02
69574;BME280;62840;52.366;5.980;2024-03-08T01:48:34;101818.88;;;2.58;69.97
69574;BME280;62840;52.366;5.980;2024-03-08T01:51:02;101813.63;;;2.58;70.04
69574;BME280;62840;52.366;5.980;2024-03-08T01:53:29;101814.56;;;2.55;69.83
69574;BME280;62840;52.366;5.980;2024-03-08T01:55:57;101812.00;;;2.54;70.10
69574;BME280;62840;52.366;5.980;2024-03-08T01:58:27;101808.56;;;2.52;70.10
69574;BME280;62840;52.366;5.980;2024-03-08T02:00:54;101819.16;;;2.49;69.96
69574;BME280;62840;52.366;5.980;2024-03-08T02:03:22;101810.47;;;2.47;69.90
69574;BME280;62840;52.366;5.980;2024-03-08T02:05:48;101813.19;;;2.44;70.18
69574;BME280;62840;52.366;5.980;2024-03-08T02:08:15;101808.94;;;2.40;70.17
69574;BME280;62840;52.366;5.980;2024-03-08T02:10:43;101796.81;;;2.36;70.08
69574;BME280;62840;52.366;5.980;2024-03-08T02:13:10;101793.25;;;2.37;70.00
69574;BME280;62840;52.366;5.980;2024-03-08T02:15:55;101792.44;;;2.34;70.23
69574;BME280;62840;52.366;5.980;2024-03-08T02:18:23;101794.22;;;2.34;70.23
69574;BME280;62840;52.366;5.980;2024-03-08T02:20:52;101794.22;;;2.34;69.95
69574;BME280;62840;52.366;5.980;2024-03-08T02:23:18;101790.75;;;2.33;70.22
69574;BME280;62840;52.366;5.980;2024-03-08T02:25:44;101794.22;;;2.34;70.21
69574;BME280;62840;52.366;5.980;2024-03-08T02:28:11;101789.03;;;2.31;70.06
69574;BME280;62840;52.366;5.980;2024-03-08T02:30:38;101790.88;;;2.29;70.16
69574;BME280;62840;52.366;5.980;2024-03-08T02:33:04;101790.00;;;2.28;70.16
69574;BME280;62840;52.366;5.980;2024-03-08T02:35:30;101786.56;;;2.26;70.08
69574;BME280;62840;52.366;5.980;2024-03-08T02:37:59;101775.28;;;2.23;70.29
69574;BME280;62840;52.366;5.980;2024-03-08T02:40:24;101777.09;;;2.21;69.98
69574;BME280;62840;52.366;5.980;2024-03-08T02:42:50;101765.91;;;2.14;70.22
69574;BME280;62840;52.366;5.980;2024-03-08T02:45:16;101767.84;;;2.09;70.32
69574;BME280;62840;52.366;5.980;2024-03-08T02:47:42;101763.56;;;2.06;70.12
69574;BME280;62840;52.366;5.980;2024-03-08T02:50:09;101775.91;;;2.04;70.38
69574;BME280;62840;52.366;5.980;2024-03-08T02:52:35;101766.34;;;2.02;70.16
69574;BME280;62840;52.366;5.980;2024-03-08T02:55:05;101763.78;;;1.99;70.39
69574;BME280;62840;52.366;5.980;2024-03-08T02:57:31;101761.25;;;1.96;70.19
69574;BME280;62840;52.366;5.980;2024-03-08T02:59:57;101763.06;;;1.94;70.30
69574;BME280;62840;52.366;5.980;2024-03-08T03:02:23;101755.28;;;1.90;70.23
69574;BME280;62840;52.366;5.980;2024-03-08T03:04:49;101752.75;;;1.87;70.57
69574;BME280;62840;52.366;5.980;2024-03-08T03:07:15;101753.75;;;1.83;70.23
69574;BME280;62840;52.366;5.980;2024-03-08T03:09:40;101748.53;;;1.82;70.41
69574;BME280;62840;52.366;5.980;2024-03-08T03:12:09;101747.78;;;1.78;70.40
69574;BME280;62840;52.366;5.980;2024-03-08T03:14:35;101751.31;;;1.77;70.52
69574;BME280;62840;52.366;5.980;2024-03-08T03:17:01;101746.13;;;1.74;70.52
69574;BME280;62840;52.366;5.980;2024-03-08T03:19:27;101750.53;;;1.74;70.56
69574;BME280;62840;52.366;5.980;2024-03-08T03:21:52;101742.69;;;1.72;70.58
69574;BME280;62840;52.366;5.980;2024-03-08T03:24:18;101742.81;;;1.69;70.45
69574;BME280;62840;52.366;5.980;2024-03-08T03:26:44;101736.75;;;1.65;70.51
69574;BME280;62840;52.366;5.980;2024-03-08T03:29:13;101735.91;;;1.65;70.52
69574;BME280;62840;52.366;5.980;2024-03-08T03:31:39;101739.47;;;1.64;70.36
69574;BME280;62840;52.366;5.980;2024-03-08T03:34:04;101728.13;;;1.62;70.47
69574;BME280;62840;52.366;5.980;2024-03-08T03:36:30;101727.31;;;1.60;70.38
69574;BME280;62840;52.366;5.980;2024-03-08T03:38:56;101727.38;;;1.57;70.55
69574;BME280;62840;52.366;5.980;2024-03-08T03:41:22;101725.69;;;1.56;70.53
69574;BME280;62840;52.366;5.980;2024-03-08T03:43:48;101724.91;;;1.52;70.67
69574;BME280;62840;52.366;5.980;2024-03-08T03:46:16;101735.50;;;1.50;70.71
69574;BME280;62840;52.366;5.980;2024-03-08T03:48:42;101717.16;;;1.47;70.63
69574;BME280;62840;52.366;5.980;2024-03-08T03:51:09;101718.97;;;1.45;70.70
69574;BME280;62840;52.366;5.980;2024-03-08T03:53:35;101731.31;;;1.43;70.72
69574;BME280;62840;52.366;5.980;2024-03-08T03:56:01;101714.75;;;1.41;70.61
69574;BME280;62840;52.366;5.980;2024-03-08T03:58:27;101705.97;;;1.41;70.55
69574;BME280;62840;52.366;5.980;2024-03-08T04:00:53;101713.06;;;1.39;70.53
69574;BME280;62840;52.366;5.980;2024-03-08T04:03:21;101716.63;;;1.36;70.69
69574;BME280;62840;52.366;5.980;2024-03-08T04:05:47;101708.84;;;1.33;70.72
69574;BME280;62840;52.366;5.980;2024-03-08T04:08:13;101711.56;;;1.30;70.64
69574;BME280;62840;52.366;5.980;2024-03-08T04:10:40;101709.03;;;1.27;70.83
69574;BME280;62840;52.366;5.980;2024-03-08T04:13:06;101709.13;;;1.24;70.76
69574;BME280;62840;52.366;5.980;2024-03-08T04:15:32;101705.69;;;1.22;70.96
69574;BME280;62840;52.366;5.980;2024-03-08T04:17:57;101705.69;;;1.22;71.02
69574;BME280;62840;52.366;5.980;2024-03-08T04:20:26;101703.16;;;1.19;70.81
69574;BME280;62840;52.366;5.980;2024-03-08T04:22:52;101697.09;;;1.17;71.05
69574;BME280;62840;52.366;5.980;2024-03-08T04:25:18;101698.03;;;1.14;70.88
69574;BME280;62840;52.366;5.980;2024-03-08T04:27:44;101702.41;;;1.14;71.11
69574;BME280;62840;52.366;5.980;2024-03-08T04:30:11;101703.38;;;1.11;71.12
69574;BME280;62840;52.366;5.980;2024-03-08T04:32:37;101700.72;;;1.11;71.18
69574;BME280;62840;52.366;5.980;2024-03-08T04:35:03;101697.25;;;1.11;71.04
69574;BME280;62840;52.366;5.980;2024-03-08T04:37:32;101694.66;;;1.09;71.14
69574;BME280;62840;52.366;5.980;2024-03-08T04:39:58;101690.38;;;1.06;70.92
69574;BME280;62840;52.366;5.980;2024-03-08T04:42:25;101693.84;;;1.07;70.79
69574;BME280;62840;52.366;5.980;2024-03-08T04:44:52;101685.97;;;1.07;70.87
69574;BME280;62840;52.366;5.980;2024-03-08T04:47:18;101692.97;;;1.08;70.85
69574;BME280;62840;52.366;5.980;2024-03-08T04:49:44;101688.66;;;1.05;70.88
69574;BME280;62840;52.366;5.980;2024-03-08T04:52:10;101679.84;;;1.06;71.05
69574;BME280;62840;52.366;5.980;2024-03-08T04:54:38;101677.19;;;1.08;70.77
69574;BME280;62840;52.366;5.980;2024-03-08T04:57:04;101685.94;;;1.08;71.01
69574;BME280;62840;52.366;5.980;2024-03-08T04:59:30;101679.84;;;1.06;71.13
69574;BME280;62840;52.366;5.980;2024-03-08T05:01:56;101666.78;;;1.05;71.01
69574;BME280;62840;52.366;5.980;2024-03-08T05:04:22;101673.75;;;1.06;71.06
69574;BME280;62840;52.366;5.980;2024-03-08T05:06:48;101671.16;;;1.04;70.88
69574;BME280;62840;52.366;5.980;2024-03-08T05:09:14;101665.91;;;1.04;71.06
69574;BME280;62840;52.366;5.980;2024-03-08T05:11:43;101657.13;;;1.05;70.95
69574;BME280;62840;52.366;5.980;2024-03-08T05:14:09;101662.38;;;1.05;70.88
69574;BME280;62840;52.366;5.980;2024-03-08T05:16:35;101658.91;;;1.05;70.98
69574;BME280;62840;52.366;5.980;2024-03-08T05:19:01;101661.53;;;1.05;70.90
69574;BME280;62840;52.366;5.980;2024-03-08T05:21:28;101652.75;;;1.06;70.95
69574;BME280;62840;52.366;5.980;2024-03-08T05:23:54;101661.47;;;1.06;70.98
69574;BME280;62840;52.366;5.980;2024-03-08T05:26:19;101655.41;;;1.04;70.86
69574;BME280;62840;52.366;5.980;2024-03-08T05:28:48;101667.66;;;1.05;71.04
69574;BME280;62840;52.366;5.980;2024-03-08T05:31:18;101664.09;;;1.06;70.78
69574;BME280;62840;52.366;5.980;2024-03-08T05:33:45;101658.84;;;1.06;70.95
69574;BME280;62840;52.366;5.980;2024-03-08T05:36:11;101660.59;;;1.07;70.91
69574;BME280;62840;52.366;5.980;2024-03-08T05:38:37;101663.13;;;1.09;71.03
69574;BME280;62840;52.366;5.980;2024-03-08T05:41:03;101653.53;;;1.10;70.82
69574;BME280;62840;52.366;5.980;2024-03-08T05:43:29;101658.66;;;1.13;70.64
69574;BME280;62840;52.366;5.980;2024-03-08T05:45:57;101660.38;;;1.14;70.63
69574;BME280;62840;52.366;5.980;2024-03-08T05:48:23;101660.38;;;1.14;70.66
69574;BME280;62840;52.366;5.980;2024-03-08T05:50:49;101655.13;;;1.14;70.72
69574;BME280;62840;52.366;5.980;2024-03-08T05:53:15;101653.31;;;1.16;70.62
69574;BME280;62840;52.366;5.980;2024-03-08T05:55:41;101656.84;;;1.15;70.79
69574;BME280;62840;52.366;5.980;2024-03-08T05:58:06;101651.59;;;1.15;70.79
69574;BME280;62840;52.366;5.980;2024-03-08T06:00:32;101656.84;;;1.15;70.48
69574;BME280;62840;52.366;5.980;2024-03-08T06:03:01;101654.13;;;1.18;70.50
69574;BME280;62840;52.366;5.980;2024-03-08T06:05:27;101649.78;;;1.17;70.79
69574;BME280;62840;52.366;5.980;2024-03-08T06:07:53;101650.66;;;1.17;70.71
69574;BME280;62840;52.366;5.980;2024-03-08T06:10:19;101645.41;;;1.17;71.02
69574;BME280;62840;52.366;5.980;2024-03-08T06:12:45;101644.53;;;1.17;70.69
69574;BME280;62840;52.366;5.980;2024-03-08T06:15:11;101642.81;;;1.16;70.76
69574;BME280;62840;52.366;5.980;2024-03-08T06:17:37;101637.56;;;1.16;70.86
69574;BME280;62840;52.366;5.980;2024-03-08T06:20:06;101634.88;;;1.17;70.83
69574;BME280;62840;52.366;5.980;2024-03-08T06:22:33;101641.84;;;1.18;70.67
69574;BME280;62840;52.366;5.980;2024-03-08T06:24:58;101636.59;;;1.18;70.87
69574;BME280;62840;52.366;5.980;2024-03-08T06:27:24;101630.41;;;1.21;70.54
69574;BME280;62840;52.366;5.980;2024-03-08T06:29:50;101638.28;;;1.21;70.65
69574;BME280;62840;52.366;5.980;2024-03-08T06:32:16;101628.63;;;1.21;70.80
69574;BME280;62840;52.366;5.980;2024-03-08T06:34:42;101625.03;;;1.24;70.89
69574;BME280;62840;52.366;5.980;2024-03-08T06:37:10;101628.50;;;1.26;70.83
69574;BME280;62840;52.366;5.980;2024-03-08T06:39:36;101634.56;;;1.28;70.74
69574;BME280;62840;52.366;5.980;2024-03-08T06:42:02;101628.38;;;1.29;70.54
69574;BME280;62840;52.366;5.980;2024-03-08T06:44:28;101635.38;;;1.30;70.60
69574;BME280;62840;52.366;5.980;2024-03-08T06:46:54;101626.56;;;1.31;70.71
69574;BME280;62840;52.366;5.980;2024-03-08T06:49:20;101619.47;;;1.35;70.45
69574;BME280;62840;52.366;5.980;2024-03-08T06:51:46;101621.97;;;1.38;70.45
69574;BME280;62840;52.366;5.980;2024-03-08T06:54:14;101614.06;;;1.39;70.65
69574;BME280;62840;52.366;5.980;2024-03-08T06:56:40;101619.22;;;1.42;70.63
69574;BME280;62840;52.366;5.980;2024-03-08T06:59:06;101619.91;;;1.47;70.61
69574;BME280;62840;52.366;5.980;2024-03-08T07:01:32;101618.09;;;1.49;70.28
69574;BME280;62840;52.366;5.980;2024-03-08T07:03:57;101620.63;;;1.53;70.39
69574;BME280;62840;52.366;5.980;2024-03-08T07:06:23;101622.22;;;1.57;70.26
69574;BME280;62840;52.366;5.980;2024-03-08T07:08:49;101620.41;;;1.59;70.11
69574;BME280;62840;52.366;5.980;2024-03-08T07:11:18;101613.34;;;1.61;70.41
69574;BME280;62840;52.366;5.980;2024-03-08T07:13:44;101605.38;;;1.64;70.23
69574;BME280;62840;52.366;5.980;2024-03-08T07:16:10;101609.63;;;1.68;70.18
69574;BME280;62840;52.366;5.980;2024-03-08T07:18:36;101619.19;;;1.70;70.02
69574;BME280;62840;52.366;5.980;2024-03-08T07:21:02;101616.47;;;1.72;70.22
69574;BME280;62840;52.366;5.980;2024-03-08T07:23:28;101614.66;;;1.74;70.17
69574;BME280;62840;52.366;5.980;2024-03-08T07:25:53;101617.13;;;1.79;70.29
69574;BME280;62840;52.366;5.980;2024-03-08T07:28:22;101608.22;;;1.83;70.14
69574;BME280;62840;52.366;5.980;2024-03-08T07:30:48;101614.25;;;1.86;69.99
69574;BME280;62840;52.366;5.980;2024-03-08T07:33:14;101607.19;;;1.88;70.02
69574;BME280;62840;52.366;5.980;2024-03-08T07:35:40;101614.03;;;1.92;69.91
69574;BME280;62840;52.366;5.980;2024-03-08T07:38:06;101606.09;;;1.94;69.84
69574;BME280;62840;52.366;5.980;2024-03-08T07:40:35;101603.31;;;1.99;69.86
69574;BME280;62840;52.366;5.980;2024-03-08T07:43:02;101600.59;;;2.02;69.70
69574;BME280;62840;52.366;5.980;2024-03-08T07:45:30;101599.63;;;2.04;69.91
69574;BME280;62840;52.366;5.980;2024-03-08T07:47:56;101600.34;;;2.08;69.74
69574;BME280;62840;52.366;5.980;2024-03-08T07:50:22;101593.09;;;2.15;69.79
69574;BME280;62840;52.366;5.980;2024-03-08T07:52:48;101598.28;;;2.18;69.80
69574;BME280;62840;52.366;5.980;2024-03-08T07:55:14;101585.97;;;2.18;69.80
69574;BME280;62840;52.366;5.980;2024-03-08T07:57:40;101583.22;;;2.21;69.71
69574;BME280;62840;52.366;5.980;2024-03-08T08:00:06;101585.66;;;2.27;69.29
69574;BME280;62840;52.366;5.980;2024-03-08T08:02:35;101589.94;;;2.30;69.57
69574;BME280;62840;52.366;5.980;2024-03-08T08:05:02;101586.28;;;2.34;69.75
69574;BME280;62840;52.366;5.980;2024-03-08T08:07:28;101573.84;;;2.38;69.16
69574;BME280;62840;52.366;5.980;2024-03-08T08:09:54;101585.09;;;2.43;69.28
69574;BME280;62840;52.366;5.980;2024-03-08T08:12:20;101580.50;;;2.48;69.44
69574;BME280;62840;52.366;5.980;2024-03-08T08:14:45;101573.41;;;2.50;69.23
69574;BME280;62840;52.366;5.980;2024-03-08T08:17:11;101564.50;;;2.54;68.86
69574;BME280;62840;52.366;5.980;2024-03-08T08:19:40;101574.75;;;2.60;68.95
69574;BME280;62840;52.366;5.980;2024-03-08T08:22:06;101568.47;;;2.64;68.93
69574;BME280;62840;52.366;5.980;2024-03-08T08:24:32;101569.19;;;2.69;69.28
69574;BME280;62840;52.366;5.980;2024-03-08T08:26:58;101564.59;;;2.74;68.80
69574;BME280;62840;52.366;5.980;2024-03-08T08:29:24;101549.50;;;2.78;68.83
69574;BME280;62840;52.366;5.980;2024-03-08T08:31:50;101556.31;;;2.84;68.98
69574;BME280;62840;52.366;5.980;2024-03-08T08:34:16;101546.47;;;2.89;68.72
69574;BME280;62840;52.366;5.980;2024-03-08T08:36:44;101554.13;;;2.95;69.01
69574;BME280;62840;52.366;5.980;2024-03-08T08:39:10;101541.63;;;3.00;69.00
69574;BME280;62840;52.366;5.980;2024-03-08T08:41:36;101539.59;;;3.07;68.74
69574;BME280;62840;52.366;5.980;2024-03-08T08:44:02;101535.88;;;3.12;68.60
69574;BME280;62840;52.366;5.980;2024-03-08T08:46:28;101528.63;;;3.17;68.41
69574;BME280;62840;52.366;5.980;2024-03-08T08:48:53;101532.72;;;3.25;68.38
69574;BME280;62840;52.366;5.980;2024-03-08T08:51:19;101536.97;;;3.29;68.31
69574;BME280;62840;52.366;5.980;2024-03-08T08:53:48;101529.72;;;3.34;68.11
69574;BME280;62840;52.366;5.980;2024-03-08T08:56:14;101530.41;;;3.39;68.27
69574;BME280;62840;52.366;5.980;2024-03-08T08:58:40;101524.06;;;3.43;68.02
69574;BME280;62840;52.366;5.980;2024-03-08T09:01:06;101529.06;;;3.49;68.07
69574;BME280;62840;52.366;5.980;2024-03-08T09:03:31;101522.81;;;3.52;67.54
69574;BME280;62840;52.366;5.980;2024-03-08T09:05:57;101518.28;;;3.55;67.37
69574;BME280;62840;52.366;5.980;2024-03-08T09:08:23;101526.06;;;3.58;67.57
69574;BME280;62840;52.366;5.980;2024-03-08T09:10:52;101515.25;;;3.65;67.62
69574;BME280;62840;52.366;5.980;2024-03-08T09:13:18;101510.63;;;3.70;67.45
69574;BME280;62840;52.366;5.980;2024-03-08T09:15:43;101503.34;;;3.75;67.55
69574;BME280;62840;52.366;5.980;2024-03-08T09:18:09;101510.22;;;3.79;67.35
69574;BME280;62840;52.366;5.980;2024-03-08T09:20:35;101503.91;;;3.83;67.18
69574;BME280;62840;52.366;5.980;2024-03-08T09:23:01;101504.53;;;3.88;67.50
69574;BME280;62840;52.366;5.980;2024-03-08T09:25:27;101495.56;;;3.92;67.07
69574;BME280;62840;52.366;5.980;2024-03-08T09:27:55;101497.16;;;3.96;67.12
69574;BME280;62840;52.366;5.980;2024-03-08T09:30:21;101482.81;;;4.02;66.89
69574;BME280;62840;52.366;5.980;2024-03-08T09:32:47;101489.59;;;4.08;67.07
69574;BME280;62840;52.366;5.980;2024-03-08T09:35:13;101467.44;;;4.12;66.81
69574;BME280;62840;52.366;5.980;2024-03-08T09:37:39;101484.75;;;4.17;66.69
69574;BME280;62840;52.366;5.980;2024-03-08T09:40:05;101467.91;;;4.20;66.69
69574;BME280;62840;52.366;5.980;2024-03-08T09:42:32;101462.50;;;4.23;66.34
69574;BME280;62840;52.366;5.980;2024-03-08T09:45:00;101457.88;;;4.28;66.42
69574;BME280;62840;52.366;5.980;2024-03-08T09:47:27;101455.06;;;4.31;66.76
69574;BME280;62840;52.366;5.980;2024-03-08T09:49:54;101451.25;;;4.38;66.94
69574;BME280;62840;52.366;5.980;2024-03-08T09:52:20;101450.94;;;4.45;66.82
69574;BME280;62840;52.366;5.980;2024-03-08T09:54:46;101434.81;;;4.51;66.73
69574;BME280;62840;52.366;5.980;2024-03-08T09:57:12;101433.66;;;4.56;66.37
69574;BME280;62840;52.366;5.980;2024-03-08T09:59:38;101428.94;;;4.63;66.57
69574;BME280;62840;52.366;5.980;2024-03-08T10:02:13;101430.50;;;4.67;66.68
69574;BME280;62840;52.366;5.980;2024-03-08T10:04:41;101420.41;;;4.75;66.66
69574;BME280;62840;52.366;5.980;2024-03-08T10:07:07;101413.88;;;4.82;66.58
69574;BME280;62840;52.366;5.980;2024-03-08T10:09:33;101414.44;;;4.89;66.41
69574;BME280;62840;52.366;5.980;2024-03-08T10:11:59;101421.16;;;4.96;66.39
69574;BME280;62840;52.366;5.980;2024-03-08T10:14:25;101404.16;;;5.02;66.24
69574;BME280;62840;52.366;5.980;2024-03-08T10:16:52;101402.97;;;5.08;66.12
69574;BME280;62840;52.366;5.980;2024-03-08T10:19:20;101400.81;;;5.16;66.16
69574;BME280;62840;52.366;5.980;2024-03-08T10:21:49;101398.69;;;5.22;65.99
69574;BME280;62840;52.366;5.980;2024-03-08T10:24:15;101395.75;;;5.29;66.13
69574;BME280;62840;52.366;5.980;2024-03-08T10:26:42;101392.69;;;5.36;65.55
69574;BME280;62840;52.366;5.980;2024-03-08T10:29:08;101384.38;;;5.44;65.87
69574;BME280;62840;52.366;5.980;2024-03-08T10:31:34;101379.69;;;5.49;66.00
69574;BME280;62840;52.366;5.980;2024-03-08T10:34:00;101379.22;;;5.58;65.65
69574;BME280;62840;52.366;5.980;2024-03-08T10:36:29;101382.38;;;5.65;65.60
69574;BME280;62840;52.366;5.980;2024-03-08T10:39:01;101374.97;;;5.72;65.42
69574;BME280;62840;52.366;5.980;2024-03-08T10:41:28;101370.28;;;5.77;65.29
69574;BME280;62840;52.366;5.980;2024-03-08T10:44:10;101375.31;;;5.81;65.05
69574;BME280;62840;52.366;5.980;2024-03-08T10:46:59;101370.53;;;5.88;65.26
69574;BME280;62840;52.366;5.980;2024-03-08T10:49:31;101366.63;;;5.95;65.30
69574;BME280;62840;52.366;5.980;2024-03-08T10:52:05;101365.34;;;6.02;64.86
69574;BME280;62840;52.366;5.980;2024-03-08T10:54:31;101359.72;;;6.08;64.79
69574;BME280;62840;52.366;5.980;2024-03-08T10:57:02;101355.78;;;6.16;64.54
69574;BME280;62840;52.366;5.980;2024-03-08T10:59:31;101355.25;;;6.25;64.62
69574;BME280;62840;52.366;5.980;2024-03-08T11:01:57;101341.59;;;6.33;64.27
69574;BME280;62840;52.366;5.980;2024-03-08T11:04:23;101342.75;;;6.43;64.30
69574;BME280;62840;52.366;5.980;2024-03-08T11:06:51;101343.94;;;6.53;64.50
69574;BME280;62840;52.366;5.980;2024-03-08T11:09:34;101331.78;;;6.65;64.02
69574;BME280;62840;52.366;5.980;2024-03-08T11:12:28;101325.78;;;6.77;64.06
69574;BME280;62840;52.366;5.980;2024-03-08T11:14:54;101325.22;;;6.86;64.08
69574;BME280;62840;52.366;5.980;2024-03-08T11:17:26;101326.38;;;6.97;63.70
69574;BME280;62840;52.366;5.980;2024-03-08T11:20:10;101327.53;;;7.07;63.50
69574;BME280;62840;52.366;5.980;2024-03-08T11:22:38;101309.47;;;7.13;63.23
69574;BME280;62840;52.366;5.980;2024-03-08T11:25:09;101301.88;;;7.22;63.51
69574;BME280;62840;52.366;5.980;2024-03-08T11:27:35;101305.59;;;7.33;63.60
69574;BME280;62840;52.366;5.980;2024-03-08T11:30:03;101297.94;;;7.43;63.32
69574;BME280;62840;52.366;5.980;2024-03-08T11:32:31;101292.91;;;7.53;63.21
69574;BME280;62840;52.366;5.980;2024-03-08T11:34:56;101297.44;;;7.65;63.23
69574;BME280;62840;52.366;5.980;2024-03-08T11:37:28;101285.19;;;7.77;63.44
69574;BME280;62840;52.366;5.980;2024-03-08T11:39:54;101279.28;;;7.86;62.95
69574;BME280;62840;52.366;5.980;2024-03-08T11:42:23;101267.44;;;7.92;62.85
69574;BME280;62840;52.366;5.980;2024-03-08T11:44:50;101275.75;;;8.00;62.49
69574;BME280;62840;52.366;5.980;2024-03-08T11:47:16;101265.69;;;8.05;62.22
69574;BME280;62840;52.366;5.980;2024-03-08T11:49:42;101269.63;;;8.12;62.51
69574;BME280;62840;52.366;5.980;2024-03-08T11:52:10;101269.22;;;8.18;62.34
69574;BME280;62840;52.366;5.980;2024-03-08T11:54:37;101270.72;;;8.23;61.80
69574;BME280;62840;52.366;5.980;2024-03-08T11:57:03;101270.72;;;8.23;61.78
69574;BME280;62840;52.366;5.980;2024-03-08T11:59:32;101252.03;;;8.24;61.83
69574;BME280;62840;52.366;5.980;2024-03-08T12:02:02;101249.28;;;8.26;61.40
69574;BME280;62840;52.366;5.980;2024-03-08T12:04:29;101240.34;;;8.27;61.85
69574;BME280;62840;52.366;5.980;2024-03-08T12:06:56;101239.94;;;8.33;61.57
69574;BME280;62840;52.366;5.980;2024-03-08T12:09:25;101241.22;;;8.40;61.46
69574;BME280;62840;52.366;5.980;2024-03-08T12:11:50;101234.53;;;8.47;61.53
69574;BME280;62840;52.366;5.980;2024-03-08T12:14:16;101225.09;;;8.56;61.45
69574;BME280;62840;52.366;5.980;2024-03-08T12:16:45;101218.31;;;8.65;61.61
69574;BME280;62840;52.366;5.980;2024-03-08T12:19:11;101218.50;;;8.74;61.32
69574;BME280;62840;52.366;5.980;2024-03-08T12:21:37;101218.94;;;8.81;60.78
69574;BME280;62840;52.366;5.980;2024-03-08T12:24:05;101213.19;;;8.87;60.98
69574;BME280;62840;52.366;5.980;2024-03-08T12:26:32;101211.06;;;8.92;60.69
69574;BME280;62840;52.366;5.980;2024-03-08T12:29:16;101198.31;;;8.97;59.99
69574;BME280;62840;52.366;5.980;2024-03-08T12:31:47;101194.69;;;8.98;60.04
69574;BME280;62840;52.366;5.980;2024-03-08T12:34:13;101188.38;;;8.99;59.84
69574;BME280;62840;52.366;5.980;2024-03-08T12:36:44;101180.94;;;9.05;60.42
69574;BME280;62840;52.366;5.980;2024-03-08T12:39:11;101170.59;;;9.13;60.17
69574;BME280;62840;52.366;5.980;2024-03-08T12:41:39;101172.59;;;9.22;60.02
69574;BME280;62840;52.366;5.980;2024-03-08T12:44:05;101170.28;;;9.30;59.90
69574;BME280;62840;52.366;5.980;2024-03-08T12:46:31;101156.72;;;9.33;59.76
69574;BME280;62840;52.366;5.980;2024-03-08T12:48:59;101163.53;;;9.37;59.46
69574;BME280;62840;52.366;5.980;2024-03-08T12:51:25;101156.31;;;9.39;59.58
69574;BME280;62840;52.366;5.980;2024-03-08T12:53:51;101145.44;;;9.43;59.16
69574;BME280;62840;52.366;5.980;2024-03-08T12:56:28;101152.22;;;9.47;59.22
69574;BME280;62840;52.366;5.980;2024-03-08T12:58:55;101152.03;;;9.50;59.14